Time;durP1;ratioP1;P1;durP2;ratioP2;P2;SDS_P1;SDS_P2;PMS_P1;PMS_P2;Temp;Humidity;BMP_temperature;BMP_pressure;BME280_temperature;BME280_humidity;BME280_pressure;Samples;Min_cycle;Max_cycle;Signal;HPM_P1;HPM_P2
2022/01/01 00:00:27;;;;;;;9.50;7.67;;;13.20;99.90;;;;;;5225792;28;20053;-29
2022/01/01 00:03:10;;;;;;;26.67;16.50;;;13.10;99.90;;;;;;5226127;28;20045;-33
2022/01/01 00:05:41;;;;;;;36.60;23.20;;;13.10;99.90;;;;;;5225819;28;20542;-33
2022/01/01 00:08:12;;;;;;;37.47;26.80;;;13.10;99.90;;;;;;5226127;28;20513;-31
2022/01/01 00:10:43;;;;;;;24.17;17.93;;;13.10;99.90;;;;;;5209255;28;20049;-36
2022/01/01 00:13:14;;;;;;;11.67;8.07;;;13.10;99.90;;;;;;5225402;28;20041;-30
2022/01/01 00:15:45;;;;;;;11.60;10.03;;;13.10;99.90;;;;;;5242890;28;20071;-36
2022/01/01 00:18:16;;;;;;;11.13;9.37;;;13.10;99.90;;;;;;5269419;28;20051;-37
2022/01/01 00:20:47;;;;;;;14.80;10.30;;;13.10;99.90;;;;;;5251614;28;20472;-30
2022/01/01 00:23:18;;;;;;;14.03;10.83;;;13.10;99.90;;;;;;5269337;28;20079;-32
2022/01/01 00:25:49;;;;;;;11.20;8.77;;;13.10;99.90;;;;;;5251556;28;20492;-32
2022/01/01 00:28:20;;;;;;;10.17;8.17;;;13.10;99.90;;;;;;5269596;28;20115;-32
2022/01/01 00:30:51;;;;;;;11.47;8.13;;;13.10;99.90;;;;;;5234272;28;20185;-28
2022/01/01 00:33:22;;;;;;;9.87;8.20;;;13.10;99.90;;;;;;5269359;28;20074;-32
2022/01/01 00:35:53;;;;;;;10.77;8.27;;;13.10;99.90;;;;;;5269298;28;20044;-31
2022/01/01 00:38:24;;;;;;;13.40;10.40;;;13.10;99.90;;;;;;5269312;28;20123;-31
2022/01/01 00:40:55;;;;;;;11.10;9.87;;;13.20;99.90;;;;;;5251242;28;20108;-37
2022/01/01 00:43:26;;;;;;;74.20;51.23;;;13.20;99.90;;;;;;5269404;28;20044;-30
2022/01/01 00:45:57;;;;;;;67.53;48.27;;;13.20;99.90;;;;;;5269135;28;20047;-33
2022/01/01 00:48:28;;;;;;;85.40;56.63;;;13.30;99.90;;;;;;5269666;28;20123;-31
2022/01/01 00:50:59;;;;;;;81.67;50.03;;;13.30;99.90;;;;;;5269481;28;20044;-28
2022/01/01 00:53:30;;;;;;;37.03;26.27;;;13.30;99.90;;;;;;5269226;28;20067;-33
2022/01/01 00:56:01;;;;;;;49.83;34.67;;;13.30;99.90;;;;;;5269279;28;20067;-32
2022/01/01 00:58:32;;;;;;;22.97;17.57;;;13.30;99.90;;;;;;5269081;28;20044;-29
2022/01/01 01:01:04;;;;;;;13.97;12.47;;;13.30;99.90;;;;;;5251236;28;20040;-33
2022/01/01 01:03:37;;;;;;;22.90;18.15;;;13.30;99.90;;;;;;5269251;28;20048;-29
2022/01/01 01:06:10;;;;;;;16.27;12.97;;;13.30;99.90;;;;;;5269128;28;20048;-34
2022/01/01 01:08:41;;;;;;;14.30;11.70;;;13.30;99.90;;;;;;5268956;28;20068;-30
2022/01/01 01:11:12;;;;;;;12.63;10.77;;;13.30;99.90;;;;;;5251079;28;20048;-35
2022/01/01 01:13:45;;;;;;;14.80;11.17;;;13.30;99.90;;;;;;5250882;28;20082;-34
2022/01/01 01:16:16;;;;;;;14.75;12.35;;;13.30;99.90;;;;;;5269273;28;20422;-31
2022/01/01 01:18:47;;;;;;;14.73;11.57;;;13.30;99.90;;;;;;5268900;28;20055;-29
2022/01/01 01:21:18;;;;;;;14.90;12.07;;;13.20;99.90;;;;;;5269027;28;20047;-32
2022/01/01 01:23:49;;;;;;;13.13;11.27;;;13.30;99.90;;;;;;5246668;28;20057;-29
2022/01/01 01:26:20;;;;;;;13.70;10.77;;;13.30;99.90;;;;;;5232113;28;20401;-33
2022/01/01 01:28:52;;;;;;;12.77;10.47;;;13.30;99.90;;;;;;5251754;28;20045;-30
2022/01/01 01:31:28;;;;;;;9.93;8.43;;;13.30;99.90;;;;;;5251746;28;20123;-36
2022/01/01 01:34:01;;;;;;;10.87;8.43;;;13.30;99.90;;;;;;5250735;28;20041;-32
2022/01/01 01:36:32;;;;;;;9.48;7.45;;;13.30;99.90;;;;;;5251258;28;20040;-29
2022/01/01 01:39:04;;;;;;;8.23;7.17;;;13.30;99.90;;;;;;5251364;28;20076;-36
2022/01/01 01:41:35;;;;;;;9.50;7.70;;;13.30;99.90;;;;;;5233307;28;20049;-29
2022/01/01 01:44:34;;;;;;;8.40;6.10;;;13.40;99.90;;;;;;5250836;28;20048;-29
2022/01/01 01:47:13;;;;;;;7.10;5.80;;;13.40;99.90;;;;;;5249778;28;20041;-30
2022/01/01 01:49:46;;;;;;;7.17;5.50;;;13.40;99.90;;;;;;5234509;28;20070;-33
2022/01/01 01:52:17;;;;;;;8.13;5.20;;;13.40;99.90;;;;;;5250231;28;20401;-35
2022/01/01 01:54:48;;;;;;;5.73;4.27;;;13.40;99.90;;;;;;5249915;28;20123;-28
2022/01/01 01:57:22;;;;;;;7.27;5.37;;;13.40;99.90;;;;;;5250058;28;20490;-28
2022/01/01 01:59:53;;;;;;;6.20;4.73;;;13.40;99.90;;;;;;5249291;28;20036;-30
2022/01/01 02:02:24;;;;;;;7.10;4.90;;;13.50;99.90;;;;;;5251128;28;20037;-30
2022/01/01 02:04:55;;;;;;;5.50;4.00;;;13.60;99.90;;;;;;5250797;28;20135;-28
2022/01/01 02:07:26;;;;;;;4.50;3.90;;;13.70;99.90;;;;;;5250893;28;20135;-29
2022/01/01 02:09:57;;;;;;;7.00;4.23;;;13.80;99.90;;;;;;5233035;28;20056;-33
2022/01/01 02:12:29;;;;;;;6.33;4.53;;;13.90;99.90;;;;;;5250552;28;20486;-32
2022/01/01 02:17:32;;;;;;;4.40;3.17;;;14.00;99.90;;;;;;5236057;28;20056;-30
2022/01/01 02:20:13;;;;;;;5.13;3.80;;;14.00;99.90;;;;;;5234300;28;20072;-28
2022/01/01 02:22:48;;;;;;;4.67;3.40;;;14.10;99.90;;;;;;5232725;28;20053;-35
2022/01/01 02:25:19;;;;;;;5.17;3.60;;;14.20;99.90;;;;;;5254430;28;20085;-31
2022/01/01 02:27:50;;;;;;;4.57;3.10;;;14.30;99.90;;;;;;5257846;28;20071;-30
2022/01/01 02:30:22;;;;;;;4.80;3.30;;;14.30;99.90;;;;;;5254801;28;20093;-27
2022/01/01 02:32:53;;;;;;;4.80;3.20;;;14.40;99.90;;;;;;5253913;28;20055;-31
2022/01/01 02:35:24;;;;;;;4.47;2.90;;;14.50;99.90;;;;;;5243334;28;20048;-33
2022/01/01 02:37:55;;;;;;;4.83;3.40;;;14.50;99.90;;;;;;5236852;28;20043;-32
2022/01/01 02:40:26;;;;;;;4.23;2.97;;;14.50;99.90;;;;;;5252383;28;20041;-35
2022/01/01 02:42:57;;;;;;;5.10;3.10;;;14.50;99.90;;;;;;5259083;28;20048;-34
2022/01/01 02:45:29;;;;;;;3.87;2.60;;;14.50;99.90;;;;;;5245206;28;20051;-33
2022/01/01 02:48:00;;;;;;;4.10;2.87;;;14.50;99.90;;;;;;5254450;28;20383;-32
2022/01/01 02:50:31;;;;;;;4.10;3.00;;;14.50;99.90;;;;;;5253063;28;20043;-28
2022/01/01 02:53:02;;;;;;;4.87;3.63;;;14.50;99.90;;;;;;5245067;28;20047;-31
2022/01/01 02:55:33;;;;;;;4.47;3.13;;;14.50;99.90;;;;;;5221776;28;20048;-28
2022/01/01 02:58:04;;;;;;;4.20;2.57;;;14.50;99.90;;;;;;5249646;28;20052;-34
2022/01/01 03:00:35;;;;;;;4.20;3.23;;;14.50;99.90;;;;;;5232218;28;20115;-34
2022/01/01 03:03:06;;;;;;;4.13;2.60;;;14.50;99.90;;;;;;5249668;28;20068;-33
2022/01/01 03:05:37;;;;;;;3.67;2.80;;;14.50;99.90;;;;;;5232121;28;20044;-32
2022/01/01 03:08:08;;;;;;;2.47;1.60;;;14.40;99.90;;;;;;5249941;28;20051;-30
2022/01/01 03:10:39;;;;;;;4.10;2.47;;;14.40;99.90;;;;;;5249395;28;20048;-32
2022/01/01 03:13:10;;;;;;;3.50;1.70;;;14.40;99.90;;;;;;5249714;28;20127;-31
2022/01/01 03:15:41;;;;;;;1.77;1.20;;;14.40;99.90;;;;;;5249465;28;20071;-33
2022/01/01 03:18:12;;;;;;;3.67;2.57;;;14.40;99.90;;;;;;5249290;28;20070;-31
2022/01/01 03:20:44;;;;;;;1.80;1.20;;;14.40;99.90;;;;;;5249539;28;20044;-29
2022/01/01 03:23:15;;;;;;;12.73;7.27;;;14.30;99.90;;;;;;5249397;28;20068;-30
2022/01/01 03:25:46;;;;;;;2.20;1.50;;;14.30;99.90;;;;;;5249729;28;20044;-32
2022/01/01 03:28:17;;;;;;;1.00;0.73;;;14.20;99.90;;;;;;5231705;28;20492;-32
2022/01/01 03:30:48;;;;;;;2.23;1.43;;;14.20;99.90;;;;;;5249287;28;20040;-34
2022/01/01 03:33:19;;;;;;;2.47;1.60;;;14.20;99.90;;;;;;5249302;28;20127;-34
2022/01/01 03:35:50;;;;;;;2.27;1.27;;;14.30;99.90;;;;;;5249773;28;20122;-30
2022/01/01 03:38:21;;;;;;;1.70;1.00;;;14.30;99.90;;;;;;5249068;28;20041;-29
2022/01/01 03:40:52;;;;;;;1.67;0.90;;;14.20;99.90;;;;;;5231418;28;20053;-36
2022/01/01 03:43:23;;;;;;;1.90;1.13;;;14.20;99.90;;;;;;5249065;28;20056;-28
2022/01/01 03:45:54;;;;;;;0.80;0.80;;;14.20;99.90;;;;;;5249049;28;20068;-29
2022/01/01 03:48:25;;;;;;;1.90;0.80;;;14.20;99.90;;;;;;5248549;28;20068;-29
2022/01/01 03:50:56;;;;;;;1.73;0.90;;;14.20;99.90;;;;;;5249108;28;20355;-30
2022/01/01 03:53:27;;;;;;;1.73;0.93;;;14.20;99.90;;;;;;5248801;28;20045;-31
2022/01/01 03:55:59;;;;;;;3.67;1.43;;;14.20;99.90;;;;;;5248905;28;20462;-31
2022/01/01 03:58:29;;;;;;;2.97;1.40;;;14.10;99.90;;;;;;5248848;28;20044;-31
2022/01/01 04:01:00;;;;;;;1.47;1.17;;;14.00;99.90;;;;;;5248811;28;20052;-34
2022/01/01 04:03:31;;;;;;;2.07;1.50;;;14.00;99.90;;;;;;5248780;28;20379;-32
2022/01/01 04:06:03;;;;;;;2.07;1.43;;;14.00;99.90;;;;;;5231098;28;20041;-33
2022/01/01 04:08:34;;;;;;;2.37;1.40;;;14.00;99.90;;;;;;5248789;28;20040;-38
2022/01/01 04:11:06;;;;;;;6.60;1.17;;;14.00;99.90;;;;;;5214522;28;20383;-31
2022/01/01 04:13:36;;;;;;;1.80;1.40;;;14.00;99.90;;;;;;5248763;28;20036;-32
2022/01/01 04:16:08;;;;;;;3.00;1.07;;;14.00;99.90;;;;;;5248736;28;20072;-33
2022/01/01 04:18:38;;;;;;;1.63;1.20;;;14.00;99.90;;;;;;5248205;28;20118;-32
2022/01/01 04:21:10;;;;;;;1.37;1.00;;;13.90;99.90;;;;;;5248676;28;20109;-30
2022/01/01 04:23:42;;;;;;;1.67;1.27;;;13.90;99.90;;;;;;5248820;28;20498;-32
2022/01/01 04:26:13;;;;;;;1.80;1.40;;;13.70;99.90;;;;;;5231457;28;20049;-35
2022/01/01 04:28:44;;;;;;;1.57;1.13;;;13.80;99.90;;;;;;5230799;28;20543;-35
2022/01/01 04:31:15;;;;;;;1.73;1.43;;;13.80;99.90;;;;;;5248477;28;20044;-34
2022/01/01 04:33:46;;;;;;;1.87;1.30;;;13.80;99.90;;;;;;5248554;28;20048;-36
2022/01/01 04:36:17;;;;;;;3.00;1.50;;;13.80;99.90;;;;;;5248553;28;20044;-40
2022/01/01 04:38:48;;;;;;;1.30;0.90;;;13.80;99.90;;;;;;5248121;28;20053;-33
2022/01/01 04:41:19;;;;;;;1.93;1.43;;;13.70;99.90;;;;;;5248369;28;20051;-37
2022/01/01 04:43:50;;;;;;;3.60;2.43;;;13.70;99.90;;;;;;5248276;28;20406;-35
2022/01/01 04:46:21;;;;;;;4.20;2.70;;;13.70;99.90;;;;;;5248428;28;20571;-32
2022/01/01 04:48:52;;;;;;;5.27;3.23;;;13.70;99.90;;;;;;5248156;28;20145;-34
2022/01/01 04:51:23;;;;;;;2.00;1.70;;;13.70;99.90;;;;;;5248653;28;20075;-34
2022/01/01 04:53:59;;;;;;;3.57;2.37;;;13.70;99.90;;;;;;5248241;28;20072;-32
2022/01/01 04:56:33;;;;;;;1.53;1.23;;;13.70;99.90;;;;;;5248300;28;20049;-37
2022/01/01 04:59:04;;;;;;;3.83;2.20;;;13.70;99.90;;;;;;5247956;28;20051;-33
2022/01/01 05:01:35;;;;;;;6.47;2.97;;;13.80;99.90;;;;;;5251323;28;20053;-32
2022/01/01 05:04:07;;;;;;;1.97;1.50;;;13.90;99.90;;;;;;5252200;28;20048;-34
2022/01/01 05:06:40;;;;;;;2.13;1.10;;;13.90;99.90;;;;;;5234675;28;20127;-32
2022/01/01 05:09:11;;;;;;;4.55;3.92;;;13.90;99.90;;;;;;5252187;28;20051;-33
2022/01/01 05:11:42;;;;;;;1.37;1.17;;;13.90;99.90;;;;;;5252087;28;20068;-33
2022/01/01 05:14:14;;;;;;;2.67;1.27;;;13.90;99.90;;;;;;5234130;28;20045;-37
2022/01/01 05:16:45;;;;;;;3.00;1.87;;;13.90;99.90;;;;;;5251854;28;20048;-36
2022/01/01 05:19:16;;;;;;;2.47;2.20;;;13.90;99.90;;;;;;5233962;28;20052;-32
2022/01/01 05:21:48;;;;;;;2.33;1.57;;;13.90;99.90;;;;;;5251893;28;20119;-30
2022/01/01 05:24:21;;;;;;;1.90;1.43;;;13.90;99.90;;;;;;5251619;28;20182;-31
2022/01/01 05:26:52;;;;;;;;;;;13.90;99.90;;;;;;5252346;28;20047;-37
2022/01/01 05:29:22;;;;;;;2.00;1.40;;;13.90;99.90;;;;;;5251586;28;19920;-38
2022/01/01 05:31:53;;;;;;;2.40;1.40;;;13.90;99.90;;;;;;5251998;28;20068;-34
2022/01/01 05:34:24;;;;;;;2.20;1.53;;;13.90;99.90;;;;;;5252017;28;20422;-32
2022/01/01 05:36:55;;;;;;;2.33;1.53;;;13.90;99.90;;;;;;5233942;28;20102;-39
2022/01/01 05:39:26;;;;;;;2.10;1.37;;;13.90;99.90;;;;;;5251440;28;20080;-32
2022/01/01 05:41:57;;;;;;;3.17;1.70;;;13.90;99.90;;;;;;5233780;28;20485;-34
2022/01/01 05:44:28;;;;;;;2.10;1.50;;;13.90;99.90;;;;;;5233688;28;20147;-30
2022/01/01 05:47:00;;;;;;;1.70;1.30;;;13.90;99.90;;;;;;5233798;28;20048;-36
2022/01/01 05:49:33;;;;;;;;;;;14.00;99.90;;;;;;5250959;28;20397;-33
2022/01/01 05:52:04;;;;;;;3.23;2.20;;;13.90;99.90;;;;;;5251259;28;19920;-35
2022/01/01 05:54:35;;;;;;;3.80;2.53;;;13.90;99.90;;;;;;5251278;28;20052;-33
2022/01/01 05:57:06;;;;;;;4.47;2.90;;;14.00;99.90;;;;;;5251746;28;20036;-37
2022/01/01 05:59:40;;;;;;;3.97;2.80;;;14.00;99.90;;;;;;5251374;28;20089;-34
2022/01/01 06:02:11;;;;;;;2.67;2.10;;;14.00;99.90;;;;;;5250869;28;20060;-31
2022/01/01 06:04:42;;;;;;;3.60;1.93;;;14.10;99.90;;;;;;5251108;28;20040;-31
2022/01/01 06:07:13;;;;;;;5.70;3.70;;;14.10;99.90;;;;;;5250887;28;20072;-30
2022/01/01 06:09:45;;;;;;;5.57;3.53;;;14.10;99.90;;;;;;5251029;28;20446;-30
2022/01/01 06:12:16;;;;;;;12.02;7.60;;;14.10;99.90;;;;;;5250726;28;20045;-37
2022/01/01 06:14:47;;;;;;;7.93;4.20;;;14.20;99.90;;;;;;5251074;28;20220;-30
2022/01/01 06:17:18;;;;;;;4.93;2.93;;;14.10;99.90;;;;;;5250665;28;20135;-33
2022/01/01 06:19:49;;;;;;;2.97;2.00;;;14.20;99.90;;;;;;5250475;28;20130;-36
2022/01/01 06:22:20;;;;;;;3.20;2.30;;;14.20;99.90;;;;;;5250715;28;20064;-40
2022/01/01 06:24:51;;;;;;;3.30;2.50;;;14.10;99.90;;;;;;5232675;28;20089;-35
2022/01/01 06:27:22;;;;;;;3.10;2.30;;;14.10;99.90;;;;;;5250623;28;20543;-33
2022/01/01 06:29:54;;;;;;;2.30;2.00;;;14.10;99.90;;;;;;5250356;28;20044;-36
2022/01/01 06:32:25;;;;;;;2.63;2.10;;;14.10;99.90;;;;;;5250669;28;20045;-39
2022/01/01 06:34:56;;;;;;;3.70;2.67;;;14.10;99.90;;;;;;5232671;28;20044;-38
2022/01/01 06:37:27;;;;;;;2.37;1.87;;;14.10;99.90;;;;;;5250358;28;20113;-35
2022/01/01 06:39:57;;;;;;;2.73;1.93;;;14.10;99.90;;;;;;5250886;28;20052;-32
2022/01/01 06:42:29;;;;;;;2.57;1.77;;;14.10;99.90;;;;;;5250417;28;20095;-31
2022/01/01 06:45:00;;;;;;;2.27;1.43;;;14.10;99.90;;;;;;5250241;28;20482;-35
2022/01/01 06:47:31;;;;;;;3.80;1.97;;;14.10;99.90;;;;;;5250097;28;20056;-39
2022/01/01 06:50:02;;;;;;;3.50;2.13;;;14.10;99.90;;;;;;5250203;28;20045;-32
2022/01/01 06:52:33;;;;;;;2.53;1.50;;;14.10;99.90;;;;;;5250067;28;20411;-31
2022/01/01 06:55:04;;;;;;;2.00;1.30;;;14.10;99.90;;;;;;5232157;28;20037;-37
2022/01/01 06:57:35;;;;;;;1.43;1.07;;;14.10;99.90;;;;;;5249907;28;20048;-35
2022/01/01 07:00:06;;;;;;;2.83;1.77;;;14.10;99.90;;;;;;5249835;28;20541;-36
2022/01/01 07:02:39;;;;;;;4.83;2.80;;;14.10;99.90;;;;;;5249693;28;20044;-33
2022/01/01 07:05:10;;;;;;;3.72;2.60;;;14.10;99.90;;;;;;5232290;28;20043;-35
2022/01/01 07:07:42;;;;;;;5.03;3.23;;;14.10;99.90;;;;;;5232604;28;20064;-34
2022/01/01 07:10:13;;;;;;;5.10;2.97;;;14.10;99.90;;;;;;5249961;28;20153;-33
2022/01/01 07:12:44;;;;;;;2.63;1.73;;;14.00;99.90;;;;;;5249902;28;20072;-36
2022/01/01 07:15:18;;;;;;;2.57;1.87;;;14.00;99.90;;;;;;5249610;28;20495;-33
2022/01/01 07:17:49;;;;;;;2.47;1.77;;;14.00;99.90;;;;;;5232040;28;20075;-37
2022/01/01 07:20:19;;;;;;;1.80;1.40;;;14.00;99.90;;;;;;5249917;28;20082;-36
2022/01/01 07:22:51;;;;;;;3.20;1.60;;;14.00;99.90;;;;;;5248399;28;20059;-30
2022/01/01 07:25:21;;;;;;;2.50;1.80;;;14.10;99.90;;;;;;5249136;28;20049;-36
2022/01/01 07:27:52;;;;;;;4.67;2.70;;;14.20;99.90;;;;;;5249408;28;20478;-33
2022/01/01 07:30:23;;;;;;;4.20;2.17;;;14.30;99.90;;;;;;5249293;28;20048;-34
2022/01/01 07:32:54;;;;;;;8.03;4.47;;;14.40;99.90;;;;;;5249289;28;20147;-33
2022/01/01 07:35:25;;;;;;;3.90;2.60;;;14.60;99.90;;;;;;5231878;28;20119;-30
2022/01/01 07:37:56;;;;;;;1.80;1.40;;;14.60;99.90;;;;;;5249314;28;20490;-34
2022/01/01 07:40:28;;;;;;;3.43;2.70;;;14.70;99.90;;;;;;5249172;28;20067;-30
2022/01/01 07:43:09;;;;;;;5.03;2.97;;;14.80;99.90;;;;;;5249115;28;20131;-35
2022/01/01 07:45:40;;;;;;;2.07;1.60;;;14.80;99.90;;;;;;5249026;28;20071;-32
2022/01/01 07:48:11;;;;;;;3.03;2.07;;;14.90;99.90;;;;;;5214336;28;20149;-32
2022/01/01 07:50:42;;;;;;;4.78;3.40;;;14.90;99.90;;;;;;5250513;28;20101;-32
2022/01/01 07:53:13;;;;;;;5.20;2.60;;;15.00;99.90;;;;;;5269081;28;20044;-33
2022/01/01 07:55:44;;;;;;;5.97;3.03;;;15.00;99.90;;;;;;5269570;28;20040;-33
2022/01/01 07:58:15;;;;;;;6.10;4.13;;;15.10;99.90;;;;;;5265305;28;20591;-34
2022/01/01 08:00:46;;;;;;;4.05;2.88;;;15.10;99.90;;;;;;5257652;28;20170;-36
2022/01/01 08:03:17;;;;;;;3.97;2.20;;;15.10;99.90;;;;;;5267452;28;20044;-33
2022/01/01 08:05:48;;;;;;;5.93;3.60;;;15.10;99.90;;;;;;5267127;28;20044;-35
2022/01/01 08:08:19;;;;;;;3.42;1.90;;;15.20;99.90;;;;;;5249621;28;20086;-28
2022/01/01 08:10:50;;;;;;;2.70;1.83;;;15.20;99.90;;;;;;5267233;28;20044;-31
2022/01/01 08:13:23;;;;;;;3.60;2.30;;;15.10;99.90;;;;;;5267540;28;20036;-30
2022/01/01 08:15:55;;;;;;;3.00;1.60;;;15.10;99.90;;;;;;5267328;28;20086;-31
2022/01/01 08:18:26;;;;;;;1.92;1.60;;;15.10;99.90;;;;;;5267293;28;20134;-29
2022/01/01 08:20:57;;;;;;;2.80;2.00;;;15.00;99.90;;;;;;5267247;28;20156;-27
2022/01/01 08:23:28;;;;;;;3.00;2.20;;;15.00;99.90;;;;;;5265897;28;20498;-29
2022/01/01 08:26:00;;;;;;;2.57;1.80;;;15.00;99.90;;;;;;5254217;28;20047;-33
2022/01/01 08:28:31;;;;;;;3.00;1.93;;;14.90;99.90;;;;;;5266861;28;20082;-36
2022/01/01 08:31:02;;;;;;;2.63;1.97;;;14.90;99.90;;;;;;5267373;28;20485;-33
2022/01/01 08:33:33;;;;;;;3.77;2.53;;;14.90;99.90;;;;;;5268366;28;20082;-30
2022/01/01 08:36:04;;;;;;;4.63;3.03;;;14.80;99.90;;;;;;5255525;28;20075;-29
2022/01/01 08:38:35;;;;;;;3.07;2.30;;;14.80;99.90;;;;;;5273249;28;20071;-33
2022/01/01 08:41:06;;;;;;;7.17;5.83;;;14.80;99.90;;;;;;5274179;28;20067;-32
2022/01/01 08:43:38;;;;;;;11.77;10.47;;;14.70;99.90;;;;;;5273646;28;20115;-36
2022/01/01 08:46:09;;;;;;;6.27;5.10;;;14.70;99.90;;;;;;5274225;28;20188;-32
2022/01/01 08:48:41;;;;;;;5.07;4.03;;;14.70;99.90;;;;;;5273925;28;20071;-30
2022/01/01 08:51:16;;;;;;;3.97;3.13;;;14.60;99.90;;;;;;5273558;28;20044;-30
2022/01/01 08:53:47;;;;;;;4.00;3.60;;;14.60;99.90;;;;;;5273540;28;20542;-37
2022/01/01 08:56:18;;;;;;;2.63;2.13;;;14.60;99.90;;;;;;5237872;28;20075;-30
2022/01/01 08:58:49;;;;;;;3.70;2.43;;;14.50;99.90;;;;;;5273762;28;20408;-32
2022/01/01 09:01:21;;;;;;;3.07;1.77;;;14.50;99.90;;;;;;5238002;28;20066;-32
2022/01/01 09:03:52;;;;;;;2.80;1.93;;;14.40;99.90;;;;;;5272094;28;20102;-27
2022/01/01 09:06:22;;;;;;;3.10;1.90;;;14.30;99.90;;;;;;5272733;28;20447;-36
2022/01/01 09:08:54;;;;;;;4.60;2.93;;;14.30;99.90;;;;;;5272090;28;20079;-31
2022/01/01 09:11:24;;;;;;;7.03;4.13;;;14.30;99.90;;;;;;5273197;28;20480;-32
2022/01/01 09:13:55;;;;;;;3.80;2.27;;;14.30;99.90;;;;;;5272984;28;20492;-27
2022/01/01 09:16:29;;;;;;;6.17;3.40;;;14.30;99.90;;;;;;5273038;28;20064;-30
2022/01/01 09:19:00;;;;;;;7.93;4.10;;;14.20;99.90;;;;;;5272307;28;20059;-28
2022/01/01 09:21:31;;;;;;;5.53;2.97;;;14.30;99.90;;;;;;5272192;28;20374;-28
2022/01/01 09:24:04;;;;;;;4.13;2.93;;;14.20;99.90;;;;;;5270089;28;20070;-38
2022/01/01 09:26:36;;;;;;;;;;;14.30;99.90;;;;;;5205046;28;20044;-31
2022/01/01 09:29:09;;;;;;;9.17;6.03;;;14.20;99.90;;;;;;5271818;28;19960;-30
2022/01/01 09:31:41;;;;;;;7.10;5.50;;;14.20;99.90;;;;;;5271821;28;20477;-30
2022/01/01 09:34:13;;;;;;;5.80;2.80;;;14.20;99.90;;;;;;5272379;28;20382;-32
2022/01/01 09:36:44;;;;;;;4.50;3.20;;;14.10;99.90;;;;;;5272890;28;20040;-32
2022/01/01 09:39:15;;;;;;;9.97;7.13;;;14.10;99.90;;;;;;5272573;28;20040;-32
2022/01/01 09:41:46;;;;;;;10.33;7.30;;;14.00;99.90;;;;;;5272359;28;20494;-30
2022/01/01 09:44:18;;;;;;;6.43;4.60;;;13.90;99.90;;;;;;5254665;28;20109;-30
2022/01/01 09:46:49;;;;;;;6.70;5.77;;;13.90;99.90;;;;;;5253850;28;20048;-33
2022/01/01 09:49:20;;;;;;;6.87;3.63;;;13.90;99.90;;;;;;5272383;28;20048;-36
2022/01/01 09:51:51;;;;;;;3.53;2.07;;;14.00;99.90;;;;;;5253687;28;20051;-33
2022/01/01 09:54:22;;;;;;;6.50;3.97;;;14.00;99.90;;;;;;5271726;28;20044;-32
2022/01/01 09:56:53;;;;;;;6.07;3.93;;;14.10;99.90;;;;;;5272635;28;20363;-30
2022/01/01 09:59:24;;;;;;;3.10;2.30;;;14.10;99.90;;;;;;5271806;28;20058;-30
2022/01/01 10:01:55;;;;;;;4.33;2.27;;;14.20;99.90;;;;;;5271395;28;20090;-32
2022/01/01 10:04:26;;;;;;;3.90;2.10;;;14.20;99.90;;;;;;5271982;28;20047;-31
2022/01/01 10:07:04;;;;;;;2.77;2.13;;;14.20;99.90;;;;;;5253969;28;20051;-32
2022/01/01 10:09:37;;;;;;;3.83;2.70;;;14.20;99.90;;;;;;5253827;28;20044;-30
2022/01/01 10:12:10;;;;;;;4.13;2.50;;;14.20;99.90;;;;;;5253928;28;20051;-31
2022/01/01 10:14:45;;;;;;;3.30;2.33;;;14.20;99.90;;;;;;5272034;28;20082;-25
2022/01/01 10:17:20;;;;;;;3.50;2.77;;;14.20;99.90;;;;;;5272437;28;20056;-32
2022/01/01 10:19:52;;;;;;;4.60;3.10;;;14.20;99.90;;;;;;5253812;28;20441;-30
2022/01/01 10:22:23;;;;;;;5.37;2.77;;;14.40;99.90;;;;;;5253832;28;20408;-31
2022/01/01 10:27:58;;;;;;;5.73;2.93;;;14.40;99.90;;;;;;5227641;28;20045;-31
2022/01/01 10:30:40;;;;;;;4.30;2.13;;;14.40;99.90;;;;;;5211403;28;20541;-32
2022/01/01 10:33:18;;;;;;;2.90;1.83;;;14.30;99.90;;;;;;5188933;28;20476;-31
2022/01/01 10:35:51;;;;;;;5.73;3.20;;;14.30;99.90;;;;;;5186743;28;20423;-29
2022/01/01 10:38:26;;;;;;;4.05;3.33;;;14.20;99.90;;;;;;5188219;28;20042;-32
2022/01/01 10:41:08;;;;;;;3.90;2.50;;;14.20;99.90;;;;;;5188418;28;20549;-33
2022/01/01 10:43:42;;;;;;;4.50;2.70;;;14.20;99.90;;;;;;5187510;28;20046;-30
2022/01/01 10:46:17;;;;;;;7.00;5.50;;;14.20;99.90;;;;;;5187323;28;20049;-30
2022/01/01 10:48:57;;;;;;;7.03;5.23;;;14.20;99.90;;;;;;5188195;28;20049;-34
2022/01/01 10:51:36;;;;;;;6.90;4.17;;;14.20;99.90;;;;;;5188582;28;20042;-30
2022/01/01 10:54:10;;;;;;;5.43;3.20;;;14.20;99.90;;;;;;5186774;28;20530;-38
2022/01/01 10:56:41;;;;;;;7.30;4.23;;;14.20;99.90;;;;;;5188068;28;20046;-33
2022/01/01 10:59:12;;;;;;;4.33;2.13;;;14.20;99.90;;;;;;5186795;28;20057;-33
2022/01/01 11:01:48;;;;;;;6.87;4.03;;;14.20;99.90;;;;;;5170689;28;20046;-33
2022/01/01 11:04:19;;;;;;;5.53;3.30;;;14.20;99.90;;;;;;5171761;28;20045;-29
2022/01/01 11:06:50;;;;;;;5.13;2.90;;;14.10;99.90;;;;;;5170575;28;20081;-32
2022/01/01 11:09:21;;;;;;;3.63;2.60;;;14.10;99.90;;;;;;5186568;28;20131;-33
2022/01/01 11:11:52;;;;;;;4.90;2.67;;;14.20;99.90;;;;;;5169805;28;20064;-31
2022/01/01 11:14:23;;;;;;;4.40;2.00;;;14.30;99.90;;;;;;5186943;28;20050;-33
2022/01/01 11:16:54;;;;;;;2.87;1.70;;;14.50;99.90;;;;;;5186221;28;20435;-32
2022/01/01 11:19:25;;;;;;;3.87;2.10;;;14.40;99.90;;;;;;5187564;28;20069;-31
2022/01/01 11:21:56;;;;;;;11.27;8.77;;;14.30;99.90;;;;;;5187602;28;20073;-30
2022/01/01 11:24:28;;;;;;;39.67;35.70;;;14.20;99.90;;;;;;5203103;28;20494;-30
2022/01/01 11:26:59;;;;;;;33.63;26.40;;;14.10;99.90;;;;;;5207513;28;20046;-29
2022/01/01 11:29:30;;;;;;;106.53;79.53;;;14.00;99.90;;;;;;5208293;28;20045;-32
2022/01/01 11:32:02;;;;;;;157.07;127.50;;;14.00;99.90;;;;;;5208014;28;20050;-31
2022/01/01 11:34:36;;;;;;;36.60;33.30;;;13.90;99.90;;;;;;5191034;28;20084;-34
2022/01/01 11:37:07;;;;;;;18.60;17.00;;;13.90;99.90;;;;;;5207050;28;20222;-30
2022/01/01 11:39:40;;;;;;;9.47;8.57;;;13.90;99.90;;;;;;5207898;28;20091;-35
2022/01/01 11:42:15;;;;;;;4.00;3.60;;;13.80;99.90;;;;;;5206739;28;20042;-34
2022/01/01 11:44:53;;;;;;;3.43;2.33;;;13.80;99.90;;;;;;5207050;28;20045;-29
2022/01/01 11:47:24;;;;;;;2.93;2.23;;;13.70;99.90;;;;;;5206788;28;20231;-34
2022/01/01 11:49:58;;;;;;;4.27;2.73;;;13.70;99.90;;;;;;5206946;28;20147;-31
2022/01/01 11:52:55;;;;;;;7.43;5.33;;;13.70;99.90;;;;;;5207854;28;20440;-29
2022/01/01 11:55:26;;;;;;;5.13;3.40;;;13.70;99.90;;;;;;5202406;28;20045;-33
2022/01/01 11:57:59;;;;;;;61.77;35.93;;;13.70;99.90;;;;;;5207695;28;20045;-29
2022/01/01 12:00:30;;;;;;;32.50;24.80;;;13.80;99.90;;;;;;5207734;28;20133;-32
2022/01/01 12:03:13;;;;;;;91.20;73.17;;;13.80;99.90;;;;;;5206903;28;20104;-33
2022/01/01 12:06:11;;;;;;;39.55;35.55;;;13.80;99.90;;;;;;5207616;28;20426;-30
2022/01/01 12:08:46;;;;;;;11.70;10.50;;;13.70;99.90;;;;;;5205854;28;20081;-36
2022/01/01 12:11:30;;;;;;;6.63;4.50;;;13.80;99.90;;;;;;5206329;28;20480;-30
2022/01/01 12:14:02;;;;;;;7.37;5.53;;;13.70;99.90;;;;;;5206979;28;20395;-29
2022/01/01 12:16:33;;;;;;;9.20;6.73;;;13.70;99.90;;;;;;5207565;28;20108;-40
2022/01/01 12:19:05;;;;;;;5.13;4.37;;;13.70;99.90;;;;;;5205963;28;20053;-35
2022/01/01 12:21:39;;;;;;;7.03;4.30;;;13.70;99.90;;;;;;5207345;28;20116;-31
2022/01/01 12:24:18;;;;;;;6.93;6.23;;;13.70;99.90;;;;;;5221502;28;20139;-33
2022/01/01 12:26:53;;;;;;;5.50;4.37;;;13.80;99.90;;;;;;5227630;28;20049;-30
2022/01/01 12:29:25;;;;;;;7.43;5.77;;;13.90;99.90;;;;;;5194547;28;20498;-35
2022/01/01 12:31:58;;;;;;;7.53;5.93;;;13.90;99.90;;;;;;5228489;28;20136;-28
2022/01/01 12:34:30;;;;;;;6.93;4.63;;;14.00;99.90;;;;;;5227799;28;20494;-30
2022/01/01 12:37:07;;;;;;;7.03;4.87;;;14.10;99.90;;;;;;5228600;28;20099;-33
2022/01/01 12:39:58;;;;;;;9.23;5.73;;;14.20;99.90;;;;;;5210671;28;20057;-28
2022/01/01 12:42:31;;;;;;;10.40;6.30;;;14.20;99.90;;;;;;5227748;28;20394;-29
2022/01/01 12:45:07;;;;;;;11.50;8.40;;;14.30;99.90;;;;;;5227648;28;20048;-28
2022/01/01 12:47:38;;;;;;;8.57;7.03;;;14.30;99.90;;;;;;5227705;28;20053;-29
2022/01/01 12:50:09;;;;;;;12.83;8.90;;;14.30;99.90;;;;;;5193549;28;20090;-39
2022/01/01 12:52:40;;;;;;;8.13;6.80;;;14.40;99.90;;;;;;5227483;28;20045;-32
2022/01/01 12:55:13;;;;;;;10.20;7.27;;;14.40;99.90;;;;;;5226783;28;20462;-33
2022/01/01 12:57:48;;;;;;;11.50;8.40;;;14.30;99.90;;;;;;5193004;28;20114;-30
2022/01/01 13:00:21;;;;;;;10.60;8.10;;;14.30;99.90;;;;;;5227820;28;20125;-34
2022/01/01 13:02:57;;;;;;;12.30;7.97;;;14.30;99.90;;;;;;5193440;28;20045;-29
2022/01/01 13:05:28;;;;;;;11.07;8.10;;;14.30;99.90;;;;;;5227451;28;20045;-28
2022/01/01 13:08:03;;;;;;;8.70;6.57;;;14.30;99.90;;;;;;5226942;28;20414;-28
2022/01/01 13:10:35;;;;;;;13.40;10.00;;;14.30;99.90;;;;;;5162839;28;20046;-29
2022/01/01 13:13:06;;;;;;;11.37;8.90;;;14.30;99.90;;;;;;5208874;28;20063;-28